Time;durP1;ratioP1;P1;durP2;ratioP2;P2;SDS_P1;SDS_P2;PMS_P1;PMS_P2;Temp;Humidity;BMP_temperature;BMP_pressure;BME280_temperature;BME280_humidity;BME280_pressure;Samples;Min_cycle;Max_cycle;Signal;HPM_P1;HPM_P2
2022/03/12 07:59:11;;;;;;;10.98;8.27;;;;;;;9.51;77.18;101458.97;5321505;27;1191719;-71
2022/03/12 08:01:42;;;;;;;11.48;8.00;;;;;;;9.56;76.89;101470.09;5340127;27;20482;-74
2022/03/12 08:04:16;;;;;;;36.83;9.18;;;;;;;9.68;76.92;101463.50;5342022;27;20032;-72
2022/03/12 08:06:50;;;;;;;7.80;6.97;;;;;;;9.74;77.02;101466.03;5337085;27;20034;-71
2022/03/12 08:09:22;;;;;;;10.60;7.43;;;;;;;9.78;76.41;101472.69;5341959;27;20028;-73
2022/03/12 08:11:53;;;;;;;13.00;7.63;;;;;;;9.87;76.44;101475.78;5341639;28;20466;-75
2022/03/12 08:14:25;;;;;;;9.45;7.72;;;;;;;9.93;75.55;101480.25;5342749;27;20039;-75
2022/03/12 08:16:56;;;;;;;9.80;7.20;;;;;;;9.96;75.98;101476.94;5342664;27;20028;-84
2022/03/12 08:19:27;;;;;;;8.43;7.63;;;;;;;10.04;75.41;101481.13;5342166;28;20016;-75
2022/03/12 08:22:05;;;;;;;11.32;7.65;;;;;;;10.12;75.39;101486.13;5342904;28;20024;-76
2022/03/12 08:24:36;;;;;;;8.10;6.82;;;;;;;10.13;75.03;101487.00;5341597;27;20218;-76
2022/03/12 08:27:14;;;;;;;12.55;8.23;;;;;;;10.26;75.25;101489.25;5342605;27;20408;-73
2022/03/12 08:29:45;;;;;;;8.43;6.32;;;;;;;10.45;74.75;101498.75;5342812;27;20030;-74
2022/03/12 08:32:17;;;;;;;7.80;6.00;;;;;;;10.55;74.12;101502.66;5341659;27;20035;-75
2022/03/12 08:34:48;;;;;;;8.40;6.10;;;;;;;10.62;73.40;101506.84;5342675;27;20085;-75
2022/03/12 08:37:19;;;;;;;8.07;7.03;;;;;;;10.66;73.47;101501.59;5341610;27;20036;-76
2022/03/12 08:39:51;;;;;;;7.38;6.68;;;;;;;10.69;73.48;101514.09;5341795;28;20045;-76
2022/03/12 08:42:24;;;;;;;8.85;7.05;;;;;;;10.72;73.68;101510.75;5342469;28;20024;-76
2022/03/12 08:44:56;;;;;;;9.80;6.30;;;;;;;10.78;72.86;101513.25;5342600;27;20020;-75
2022/03/12 08:47:27;;;;;;;8.93;6.75;;;;;;;10.83;72.99;101510.50;5341569;27;20093;-85
2022/03/12 08:50:01;;;;;;;9.13;6.38;;;;;;;10.81;72.83;101507.19;5345029;28;20100;-85
2022/03/12 08:52:32;;;;;;;9.25;6.57;;;;;;;10.91;72.79;101517.44;5347580;27;20082;-84
2022/03/12 08:55:07;;;;;;;9.23;6.20;;;;;;;10.99;72.86;101518.84;5349738;28;20086;-80
2022/03/12 08:57:39;;;;;;;6.10;5.03;;;;;;;10.97;71.43;101521.91;5342353;27;20115;-81
2022/03/12 09:00:12;;;;;;;5.95;4.80;;;;;;;10.99;70.77;101519.69;5346897;27;20099;-83
2022/03/12 09:02:44;;;;;;;6.90;4.90;;;;;;;11.01;70.58;101527.72;5343011;27;20458;-82
2022/03/12 09:05:17;;;;;;;7.30;4.93;;;;;;;11.06;70.15;101525.78;5341029;27;20019;-82
2022/03/12 09:07:51;;;;;;;6.93;4.57;;;;;;;11.05;69.69;101520.53;5347997;27;20035;-81
2022/03/12 09:10:25;;;;;;;5.80;4.53;;;;;;;11.10;69.85;101532.47;5341405;27;20374;-79
2022/03/12 09:12:56;;;;;;;10.20;5.10;;;;;;;11.11;69.75;101527.72;5335890;28;20032;-78
2022/03/12 09:15:28;;;;;;;9.77;5.30;;;;;;;11.15;69.74;101520.53;5334077;28;20016;-81
2022/03/12 09:18:02;;;;;;;8.98;5.65;;;;;;;11.16;68.95;101524.13;5331354;28;20028;-81
2022/03/12 09:20:42;;;;;;;13.13;5.57;;;;;;;11.18;68.28;101533.03;5334346;28;20035;-75
2022/03/12 09:23:15;;;;;;;8.95;4.53;;;;;;;11.18;68.03;101539.41;5327049;28;20057;-75
2022/03/12 09:25:48;;;;;;;10.38;4.53;;;;;;;11.21;68.10;101533.28;5326865;28;20028;-74
2022/03/12 09:28:20;;;;;;;8.95;4.68;;;;;;;11.37;68.85;101530.50;5326596;28;20466;-69
2022/03/12 09:30:52;;;;;;;6.65;3.95;;;;;;;11.32;66.68;101523.00;5326349;28;20034;-70
2022/03/12 09:33:23;;;;;;;7.60;4.00;;;;;;;11.31;65.06;101532.47;5326714;27;20077;-77
2022/03/12 09:35:55;;;;;;;6.93;3.72;;;;;;;11.37;65.49;101530.50;5326100;28;20058;-75
2022/03/12 09:38:26;;;;;;;7.63;4.05;;;;;;;11.46;65.42;101531.63;5326294;28;20031;-75
2022/03/12 09:40:57;;;;;;;7.65;3.65;;;;;;;11.49;64.16;101529.13;5327206;28;20039;-76
2022/03/12 09:43:29;;;;;;;9.63;4.43;;;;;;;11.53;64.07;101532.19;5325458;28;20028;-76
2022/03/12 09:46:00;;;;;;;7.25;3.25;;;;;;;11.55;63.25;101532.72;5323764;28;20024;-75
2022/03/12 09:48:32;;;;;;;6.57;3.10;;;;;;;11.59;63.03;101528.28;5327292;28;20050;-78
2022/03/12 09:51:04;;;;;;;7.25;3.50;;;;;;;11.59;63.19;101528.28;5326023;28;20389;-77
2022/03/12 09:53:35;;;;;;;14.50;4.88;;;;;;;11.59;63.03;101533.84;5327230;28;20076;-76
2022/03/12 09:56:07;;;;;;;12.00;6.90;;;;;;;11.61;63.12;101528.84;5325796;27;20031;-75
2022/03/12 09:58:38;;;;;;;8.43;4.22;;;;;;;11.57;61.87;101538.00;5326526;28;20040;-79
2022/03/12 10:01:10;;;;;;;8.23;3.50;;;;;;;11.64;61.92;101536.59;5326056;28;20531;-76
2022/03/12 10:03:43;;;;;;;14.57;3.58;;;;;;;11.68;61.06;101545.19;5326296;28;20027;-74
2022/03/12 10:06:18;;;;;;;7.45;4.07;;;;;;;11.67;62.62;101538.00;5326623;28;20467;-75
2022/03/12 10:08:49;;;;;;;7.95;3.10;;;;;;;11.68;61.63;101540.50;5326696;28;20028;-76
2022/03/12 10:11:21;;;;;;;10.93;3.92;;;;;;;11.75;62.20;101542.97;5325114;28;20028;-76
2022/03/12 10:13:53;;;;;;;7.45;3.53;;;;;;;11.84;62.05;101540.47;5326735;28;20367;-78
2022/03/12 10:16:25;;;;;;;9.00;3.40;;;;;;;11.86;61.58;101543.78;5324489;28;20031;-77
2022/03/12 10:18:56;;;;;;;5.47;3.67;;;;;;;11.88;61.44;101539.63;5323097;28;20486;-76
2022/03/12 10:21:28;;;;;;;6.57;3.33;;;;;;;11.97;61.43;101545.47;5324611;28;20027;-71
2022/03/12 10:23:59;;;;;;;6.93;3.60;;;;;;;11.92;60.63;101548.25;5325943;28;20458;-70
2022/03/12 10:26:30;;;;;;;8.90;3.25;;;;;;;11.98;61.93;101551.84;5325281;28;20019;-70
2022/03/12 10:29:02;;;;;;;4.80;3.00;;;;;;;12.06;61.05;101545.72;5325319;28;20105;-71
2022/03/12 10:31:34;;;;;;;9.07;3.08;;;;;;;12.13;61.32;101538.72;5324693;28;20032;-73
2022/03/12 10:34:23;;;;;;;7.40;4.40;;;;;;;12.21;60.71;101534.53;5325010;28;20491;-73
2022/03/12 10:36:59;;;;;;;9.18;3.38;;;;;;;12.30;61.08;101543.13;5322280;28;20031;-73
2022/03/12 10:39:32;;;;;;;4.57;2.65;;;;;;;12.28;59.54;101540.63;5321307;28;20024;-75
2022/03/12 10:42:08;;;;;;;7.32;3.13;;;;;;;12.27;59.21;101552.03;5325865;28;20024;-76
2022/03/12 10:44:41;;;;;;;4.22;2.60;;;;;;;12.30;59.48;101551.47;5319904;28;20024;-77
2022/03/12 10:47:23;;;;;;;8.45;3.30;;;;;;;12.37;59.11;101549.19;5320888;28;20085;-77
2022/03/12 10:49:58;;;;;;;4.35;2.47;;;;;;;12.37;58.79;101546.41;5319998;28;20023;-77
2022/03/12 10:52:30;;;;;;;6.18;3.00;;;;;;;12.35;58.67;101537.56;5324763;28;20027;-74
2022/03/12 10:55:11;;;;;;;8.13;2.92;;;;;;;12.51;59.13;101535.53;5325688;28;20024;-79
2022/03/12 10:58:08;;;;;;;5.45;2.80;;;;;;;12.59;58.13;101548.84;5325573;27;20093;-76
2022/03/12 11:00:48;;;;;;;6.78;2.95;;;;;;;12.65;58.30;101546.84;5308390;28;20485;-77
2022/03/12 11:03:22;;;;;;;5.60;2.78;;;;;;;12.69;57.02;101545.16;5323293;28;20051;-79
2022/03/12 11:05:57;;;;;;;7.18;3.00;;;;;;;12.79;57.08;101550.69;5325431;28;20019;-76
2022/03/12 11:08:31;;;;;;;6.28;2.60;;;;;;;12.83;57.20;101541.47;5323231;28;20360;-76
2022/03/12 11:11:12;;;;;;;4.70;2.95;;;;;;;12.82;56.28;101545.34;5325482;28;20533;-76
2022/03/12 11:13:49;;;;;;;9.05;3.78;;;;;;;12.87;55.66;101547.28;5324054;28;20024;-75
2022/03/12 11:16:32;;;;;;;6.32;2.90;;;;;;;12.99;55.53;101550.53;5325389;28;20520;-76
2022/03/12 11:19:10;;;;;;;6.85;3.08;;;;;;;13.02;55.31;101557.50;5324594;28;20474;-74
2022/03/12 11:21:44;;;;;;;5.80;3.40;;;;;;;13.02;54.77;101555.53;5323612;28;20012;-75
2022/03/12 11:24:21;;;;;;;4.95;2.42;;;;;;;13.06;54.89;101555.78;5315438;28;20030;-75
2022/03/12 11:26:56;;;;;;;6.00;2.65;;;;;;;13.12;54.70;101553.81;5317230;28;20028;-76
2022/03/12 11:29:29;;;;;;;4.88;2.25;;;;;;;13.16;54.33;101549.31;5324172;28;20056;-77
2022/03/12 11:32:04;;;;;;;5.60;2.85;;;;;;;13.27;54.27;101545.38;5323749;28;20027;-74
2022/03/12 11:34:43;;;;;;;8.75;2.55;;;;;;;13.26;53.68;101538.94;5323749;28;20020;-74
2022/03/12 11:37:17;;;;;;;5.43;3.20;;;;;;;13.37;52.91;101553.63;5324245;28;20053;-75
2022/03/12 11:39:55;;;;;;;25.25;16.50;;;;;;;13.38;52.75;101541.34;5324473;28;20478;-75
2022/03/12 11:42:31;;;;;;;11.02;5.80;;;;;;;13.45;52.38;101541.88;5323496;28;20076;-75
2022/03/12 11:45:05;;;;;;;7.20;3.13;;;;;;;13.55;52.69;101543.72;5324550;28;20464;-75
2022/03/12 11:47:38;;;;;;;6.13;2.70;;;;;;;13.54;52.52;101549.59;5324059;28;20065;-75
2022/03/12 11:50:23;;;;;;;3.95;2.53;;;;;;;13.66;52.11;101547.25;5323773;28;20420;-75
2022/03/12 11:52:56;;;;;;;5.15;2.35;;;;;;;13.67;51.33;101544.16;5324646;28;20020;-71
2022/03/12 11:55:28;;;;;;;6.28;2.72;;;;;;;13.72;51.57;101550.81;5320458;28;20036;-71
2022/03/12 11:57:59;;;;;;;7.55;2.50;;;;;;;13.71;51.30;101544.41;5320135;28;20047;-72
2022/03/12 12:00:31;;;;;;;7.97;4.07;;;;;;;13.86;51.69;101535.06;5324428;28;20024;-72
2022/03/12 12:03:02;;;;;;;5.60;2.90;;;;;;;14.02;50.16;101532.94;5322624;28;20057;-75
2022/03/12 12:05:36;;;;;;;6.00;2.55;;;;;;;14.03;50.64;101529.00;5324773;28;20542;-72
2022/03/12 12:08:08;;;;;;;5.63;2.45;;;;;;;14.01;50.38;101522.88;5324293;28;20029;-75
2022/03/12 12:10:42;;;;;;;8.50;2.60;;;;;;;14.25;50.07;101520.94;5323777;28;20024;-76
2022/03/12 12:13:13;;;;;;;4.90;2.22;;;;;;;14.19;48.73;101516.56;5323652;28;20024;-77
2022/03/12 12:15:46;;;;;;;5.78;2.20;;;;;;;14.36;48.80;101521.63;5324249;28;20061;-75
2022/03/12 12:18:17;;;;;;;33.08;23.35;;;;;;;14.49;49.23;101511.69;5323109;28;20425;-78
2022/03/12 12:20:48;;;;;;;6.03;3.38;;;;;;;14.44;48.46;101515.38;5323979;28;20026;-77
2022/03/12 12:23:21;;;;;;;7.22;2.80;;;;;;;14.65;48.42;101512.34;5324529;28;20072;-75
2022/03/12 12:25:53;;;;;;;4.45;2.40;;;;;;;14.77;47.89;101505.16;5323252;28;20016;-75
2022/03/12 12:28:25;;;;;;;4.80;2.50;;;;;;;14.68;47.25;101507.00;5324088;28;20055;-72
2022/03/12 12:31:02;;;;;;;5.22;2.33;;;;;;;14.81;47.10;101510.16;5320410;28;20357;-71
2022/03/12 12:33:43;;;;;;;9.45;3.10;;;;;;;14.86;46.91;101510.09;5316807;28;20028;-72
2022/03/12 12:36:16;;;;;;;4.50;2.10;;;;;;;15.05;46.60;101510.06;5324260;28;20062;-71
2022/03/12 12:39:10;;;;;;;8.77;2.35;;;;;;;15.16;46.24;101505.97;5323422;28;20042;-76
2022/03/12 12:41:57;;;;;;;5.25;2.17;;;;;;;15.08;46.24;101487.09;5316111;28;20508;-73
2022/03/12 12:44:46;;;;;;;7.03;2.53;;;;;;;15.30;46.79;101497.63;5325998;28;20479;-73
2022/03/12 12:47:18;;;;;;;6.35;2.05;;;;;;;15.36;45.55;101499.19;5327264;28;20498;-73
2022/03/12 12:50:02;;;;;;;7.60;3.47;;;;;;;15.42;45.45;101498.00;5328253;28;20019;-70
2022/03/12 12:52:54;;;;;;;3.72;2.63;;;;;;;15.41;45.12;101501.91;5326652;28;20019;-70
2022/03/12 12:55:25;;;;;;;9.50;2.50;;;;;;;15.50;44.26;101491.69;5325184;28;20163;-69
2022/03/12 12:57:57;;;;;;;5.82;1.90;;;;;;;15.45;44.11;101494.56;5327600;28;20080;-70
2022/03/12 13:00:28;;;;;;;11.10;3.17;;;;;;;15.59;45.23;101501.00;5326593;28;20092;-70
2022/03/12 13:03:01;;;;;;;4.63;2.00;;;;;;;15.46;44.38;101504.59;5327225;28;20039;-73
2022/03/12 13:05:58;;;;;;;7.22;2.03;;;;;;;15.31;44.06;101493.69;5327608;28;20027;-73
2022/03/12 13:08:43;;;;;;;5.72;2.17;;;;;;;15.19;45.06;101485.81;5327509;28;20024;-73
2022/03/12 13:11:28;;;;;;;5.38;2.35;;;;;;;15.25;45.56;101478.16;5326786;28;20023;-73
2022/03/12 13:14:10;;;;;;;7.03;3.65;;;;;;;15.47;45.19;101488.66;5326671;28;20027;-74
2022/03/12 13:16:51;;;;;;;4.55;2.10;;;;;;;15.43;45.54;101485.66;5327144;28;20090;-72
2022/03/12 13:19:28;;;;;;;17.58;13.35;;;;;;;15.37;45.41;101487.72;5326776;28;20036;-75
2022/03/12 13:22:00;;;;;;;11.93;6.65;;;;;;;15.44;45.27;101490.97;5326586;28;20031;-74
2022/03/12 13:24:43;;;;;;;6.53;2.70;;;;;;;15.26;46.14;101488.19;5327122;28;20050;-73
2022/03/12 13:27:35;;;;;;;7.95;2.40;;;;;;;15.22;46.63;101480.44;5325962;28;20080;-72
2022/03/12 13:30:10;;;;;;;6.50;2.38;;;;;;;15.29;46.18;101470.81;5326618;28;20031;-76
2022/03/12 13:32:42;;;;;;;;;;;;;;;15.39;46.56;101471.50;5327755;28;20427;-77
2022/03/12 13:35:21;;;;;;;4.43;1.90;;;;;;;15.34;45.48;101473.53;5326332;28;19953;-76
2022/03/12 13:37:53;;;;;;;3.83;2.00;;;;;;;15.46;45.16;101481.44;5319900;28;20035;-68
2022/03/12 13:40:25;;;;;;;7.80;2.15;;;;;;;15.53;45.24;101481.84;5326775;28;20036;-73
2022/03/12 13:43:01;;;;;;;9.25;2.35;;;;;;;15.48;45.86;101479.16;5321322;28;20027;-74
2022/03/12 13:45:33;;;;;;;8.93;3.20;;;;;;;15.72;45.12;101473.41;5318724;27;20444;-74
2022/03/12 13:48:05;;;;;;;5.60;2.50;;;;;;;15.90;45.01;101474.47;5326901;28;20031;-74
2022/03/12 13:50:36;;;;;;;4.38;2.20;;;;;;;15.78;44.52;101473.03;5325349;28;20028;-73
2022/03/12 13:53:12;;;;;;;8.60;2.75;;;;;;;15.74;45.03;101473.94;5326370;28;20077;-76
2022/03/12 13:55:44;;;;;;;6.68;2.03;;;;;;;15.61;44.35;101468.00;5325639;28;20020;-78
2022/03/12 13:58:19;;;;;;;6.20;2.22;;;;;;;15.64;45.03;101475.75;5326376;28;20096;-79
2022/03/12 14:00:51;;;;;;;5.72;2.05;;;;;;;15.54;44.76;101475.94;5326052;27;20034;-78
2022/03/12 14:03:22;;;;;;;8.35;2.58;;;;;;;15.48;44.89;101470.78;5326057;28;20032;-76
2022/03/12 14:05:53;;;;;;;7.95;2.17;;;;;;;15.45;45.39;101480.59;5326055;28;20023;-78
2022/03/12 14:08:30;;;;;;;7.35;3.00;;;;;;;15.57;45.07;101469.75;5326423;28;20077;-77
2022/03/12 14:11:07;;;;;;;7.22;2.05;;;;;;;15.62;45.27;101471.59;5325381;28;20354;-79
2022/03/12 14:13:40;;;;;;;9.13;2.15;;;;;;;15.48;45.60;101479.97;5326788;28;20031;-79
2022/03/12 14:16:13;;;;;;;7.05;2.33;;;;;;;15.61;45.62;101479.16;5326671;27;20044;-77
2022/03/12 14:18:44;;;;;;;3.88;2.50;;;;;;;15.69;45.06;101479.59;5324783;27;20023;-79
2022/03/12 14:21:16;;;;;;;3.80;2.38;;;;;;;15.56;45.84;101473.69;5326207;28;20431;-79
2022/03/12 14:23:47;;;;;;;6.32;1.80;;;;;;;15.50;45.57;101474.91;5325860;28;20028;-80
2022/03/12 14:26:19;;;;;;;5.70;2.13;;;;;;;15.43;45.82;101468.91;5326598;28;20047;-77
2022/03/12 14:28:52;;;;;;;7.60;2.63;;;;;;;15.33;46.22;101474.66;5325965;28;20084;-78
2022/03/12 14:31:27;;;;;;;6.68;2.13;;;;;;;15.34;46.22;101467.94;5324981;28;20026;-77
2022/03/12 14:34:05;;;;;;;5.67;2.33;;;;;;;15.27;46.68;101471.13;5327851;28;20040;-78
2022/03/12 14:36:40;;;;;;;8.88;2.33;;;;;;;15.33;46.53;101466.28;5325991;28;20043;-76
2022/03/12 14:39:14;;;;;;;7.07;2.00;;;;;;;15.29;45.66;101460.50;5322917;28;20466;-78
2022/03/12 14:41:46;;;;;;;9.15;3.13;;;;;;;15.22;46.24;101458.09;5325448;28;20030;-76
2022/03/12 14:44:21;;;;;;;8.20;3.10;;;;;;;15.32;46.28;101459.88;5325991;28;20039;-78
2022/03/12 14:46:54;;;;;;;6.38;2.67;;;;;;;15.56;45.71;101453.28;5325768;28;20023;-78
2022/03/12 14:49:37;;;;;;;4.38;2.05;;;;;;;15.72;45.29;101457.50;5326048;28;20055;-77
2022/03/12 14:52:15;;;;;;;7.00;2.50;;;;;;;15.52;45.98;101443.84;5322392;28;20036;-78
2022/03/12 14:54:48;;;;;;;5.05;2.00;;;;;;;15.40;45.53;101449.94;5315063;28;20028;-77
2022/03/12 14:57:21;;;;;;;8.73;3.20;;;;;;;15.61;45.87;101439.22;5324679;28;20585;-76
2022/03/12 14:59:53;;;;;;;4.38;2.10;;;;;;;15.64;45.26;101445.00;5321877;28;20031;-77
2022/03/12 15:02:27;;;;;;;10.95;6.28;;;;;;;15.92;45.48;101433.84;5325601;28;20030;-78
2022/03/12 15:05:05;;;;;;;6.35;2.78;;;;;;;16.18;44.95;101431.38;5322468;28;20032;-79
2022/03/12 15:07:49;;;;;;;5.47;1.90;;;;;;;16.29;45.49;101426.34;5323737;28;20019;-74
2022/03/12 15:10:23;;;;;;;5.03;3.75;;;;;;;16.41;45.38;101423.00;5325230;28;20026;-78
2022/03/12 15:13:00;;;;;;;6.43;2.88;;;;;;;16.46;44.75;101422.88;5324568;28;20114;-78
2022/03/12 15:15:37;;;;;;;5.10;2.75;;;;;;;16.50;44.84;101416.34;5325180;28;20069;-78
2022/03/12 15:18:11;;;;;;;5.68;2.22;;;;;;;16.34;45.04;101423.44;5324916;28;20028;-82
2022/03/12 15:20:49;;;;;;;5.22;2.80;;;;;;;16.50;44.63;101427.53;5324414;28;20024;-84
2022/03/12 15:23:23;;;;;;;5.95;2.42;;;;;;;16.35;44.29;101416.69;5324675;28;20020;-75
2022/03/12 15:25:54;;;;;;;7.13;3.00;;;;;;;16.23;45.06;101422.00;5324775;28;20028;-74
2022/03/12 15:28:29;;;;;;;5.18;2.38;;;;;;;16.18;44.76;101413.72;5324130;28;20377;-78
2022/03/12 15:31:08;;;;;;;4.25;2.15;;;;;;;16.26;44.51;101416.63;5324497;28;20539;-77
2022/03/12 15:33:55;;;;;;;4.07;1.80;;;;;;;16.39;44.67;101416.91;5324587;28;20023;-78
2022/03/12 15:36:27;;;;;;;6.72;1.98;;;;;;;16.34;43.80;101417.84;5325005;28;20065;-79
2022/03/12 15:39:00;;;;;;;7.65;2.63;;;;;;;16.22;44.32;101421.19;5322378;28;20038;-78
2022/03/12 15:41:31;;;;;;;6.22;2.58;;;;;;;16.11;45.65;101418.94;5324269;28;20080;-78
2022/03/12 15:44:03;;;;;;;7.13;4.82;;;;;;;15.89;46.62;101419.69;5324421;28;20024;-77
2022/03/12 15:46:35;;;;;;;7.57;4.70;;;;;;;15.79;46.77;101412.31;5315103;28;20463;-79
2022/03/12 15:49:07;;;;;;;7.95;2.90;;;;;;;15.69;47.29;101410.56;5320277;28;20443;-78
2022/03/12 15:51:39;;;;;;;5.95;3.20;;;;;;;15.64;47.81;101407.81;5319807;28;20023;-80
2022/03/12 15:54:11;;;;;;;7.60;3.58;;;;;;;15.50;47.30;101405.03;5326110;28;20424;-79
2022/03/12 15:56:42;;;;;;;6.72;3.50;;;;;;;15.50;47.68;101399.44;5326779;28;20030;-77
2022/03/12 15:59:14;;;;;;;4.68;3.20;;;;;;;15.43;47.76;101399.03;5320570;28;20040;-77
2022/03/12 16:01:45;;;;;;;7.22;3.40;;;;;;;15.39;48.34;101397.97;5324272;28;20028;-78
2022/03/12 16:04:17;;;;;;;7.50;3.60;;;;;;;15.33;47.93;101394.44;5320932;28;20102;-79
2022/03/12 16:06:48;;;;;;;6.32;3.20;;;;;;;15.32;47.94;101391.97;5324474;28;20047;-74
2022/03/12 16:09:20;;;;;;;6.20;3.08;;;;;;;15.27;48.22;101392.06;5323743;28;20038;-78
2022/03/12 16:11:52;;;;;;;5.90;3.72;;;;;;;15.28;48.56;101390.94;5325549;28;20027;-81
2022/03/12 16:14:26;;;;;;;6.55;3.28;;;;;;;15.26;48.25;101385.63;5324610;28;20031;-73
2022/03/12 16:16:57;;;;;;;7.53;3.40;;;;;;;15.18;48.70;101381.59;5323647;28;20059;-73
2022/03/12 16:19:28;;;;;;;5.88;3.65;;;;;;;15.16;48.83;101378.31;5325139;28;20054;-74
2022/03/12 16:22:03;;;;;;;7.57;3.70;;;;;;;15.12;48.57;101376.41;5328444;28;20054;-74
2022/03/12 16:24:36;;;;;;;7.85;3.53;;;;;;;15.09;49.12;101377.88;5327785;28;20028;-75
2022/03/12 16:27:08;;;;;;;7.63;4.60;;;;;;;15.03;48.94;101372.66;5328809;27;20057;-75
2022/03/12 16:29:41;;;;;;;10.00;4.63;;;;;;;14.94;48.86;101367.78;5328469;28;20023;-79
2022/03/12 16:32:12;;;;;;;4.38;3.30;;;;;;;15.03;48.79;101367.06;5327516;28;20031;-78
2022/03/12 16:34:44;;;;;;;6.80;3.47;;;;;;;14.94;48.75;101369.75;5328562;28;20028;-79
2022/03/12 16:37:16;;;;;;;8.27;4.80;;;;;;;14.84;48.87;101364.34;5328189;28;20031;-75
2022/03/12 16:39:48;;;;;;;14.95;8.32;;;;;;;14.75;49.05;101355.84;5328566;27;20031;-72
2022/03/12 16:42:25;;;;;;;7.53;4.65;;;;;;;14.78;48.83;101350.47;5328307;28;20038;-72
2022/03/12 16:44:56;;;;;;;7.72;4.28;;;;;;;14.80;49.60;101344.56;5327896;28;20496;-73
2022/03/12 16:47:27;;;;;;;7.32;3.85;;;;;;;14.81;49.30;101346.25;5327943;28;20111;-72
2022/03/12 16:49:59;;;;;;;8.35;3.30;;;;;;;14.76;48.58;101344.38;5328374;28;20028;-72
2022/03/12 16:52:31;;;;;;;5.50;3.10;;;;;;;14.71;48.48;101352.84;5326905;28;20024;-71
2022/03/12 16:55:03;;;;;;;5.65;3.45;;;;;;;14.72;48.35;101350.88;5328572;28;20355;-72
2022/03/12 16:57:34;;;;;;;6.05;3.30;;;;;;;14.66;47.95;101352.09;5327395;28;20138;-71
2022/03/12 17:00:06;;;;;;;4.72;3.13;;;;;;;14.68;47.85;101345.06;5327681;28;20115;-75
2022/03/12 17:02:37;;;;;;;5.20;2.97;;;;;;;14.66;48.38;101352.91;5322525;28;20485;-76
2022/03/12 17:05:09;;;;;;;5.10;3.53;;;;;;;14.66;48.50;101347.34;5322784;28;20024;-76
2022/03/12 17:07:41;;;;;;;5.68;2.75;;;;;;;14.59;48.54;101346.91;5326555;28;20080;-75
2022/03/12 17:10:12;;;;;;;6.68;3.15;;;;;;;14.63;49.12;101341.53;5327863;28;20112;-75
2022/03/12 17:12:46;;;;;;;6.95;4.40;;;;;;;14.54;48.53;101353.38;5326869;28;20034;-75
2022/03/12 17:15:20;;;;;;;5.20;3.63;;;;;;;14.54;49.04;101352.56;5327583;28;20043;-76
2022/03/12 17:17:58;;;;;;;7.43;5.10;;;;;;;14.49;48.75;101347.03;5327259;27;20020;-76
2022/03/12 17:20:33;;;;;;;10.80;5.10;;;;;;;14.42;49.12;101353.00;5319673;28;20031;-74
2022/03/12 17:23:04;;;;;;;7.20;5.88;;;;;;;14.43;48.93;101349.06;5319927;28;20385;-76
2022/03/12 17:25:36;;;;;;;12.07;5.35;;;;;;;14.41;48.99;101345.75;5325988;28;20031;-75
2022/03/12 17:28:08;;;;;;;8.02;4.88;;;;;;;14.33;49.32;101344.47;5326550;28;20020;-75
2022/03/12 17:30:39;;;;;;;5.03;3.33;;;;;;;14.30;49.32;101344.28;5326397;28;20030;-76
